sensor_id;sensor_type;location;lat;lon;timestamp;P1;durP1;ratioP1;P2;durP2;ratioP2
71172;SDS011;58875;51.996;4.504;2022-09-09T00:18:27;7.25;;;7.25;;
71172;SDS011;58875;51.996;4.504;2022-09-09T00:23:34;7.20;;;7.20;;
71172;SDS011;58875;51.996;4.504;2022-09-09T00:29:03;7.48;;;7.48;;
71172;SDS011;58875;51.996;4.504;2022-09-09T00:31:31;7.57;;;7.57;;
71172;SDS011;58875;51.996;4.504;2022-09-09T00:33:59;7.53;;;7.52;;
71172;SDS011;58875;51.996;4.504;2022-09-09T00:36:36;7.98;;;7.98;;
71172;SDS011;58875;51.996;4.504;2022-09-09T00:39:03;7.74;;;7.74;;
71172;SDS011;58875;51.996;4.504;2022-09-09T00:41:44;8.36;;;8.33;;
71172;SDS011;58875;51.996;4.504;2022-09-09T00:44:40;8.38;;;8.37;;
71172;SDS011;58875;51.996;4.504;2022-09-09T00:47:37;8.59;;;8.59;;
71172;SDS011;58875;51.996;4.504;2022-09-09T00:50:13;8.63;;;8.63;;
71172;SDS011;58875;51.996;4.504;2022-09-09T01:01:47;8.21;;;8.17;;
71172;SDS011;58875;51.996;4.504;2022-09-09T01:04:16;8.13;;;8.13;;
71172;SDS011;58875;51.996;4.504;2022-09-09T01:06:50;8.21;;;8.21;;
71172;SDS011;58875;51.996;4.504;2022-09-09T01:09:42;8.18;;;8.15;;
71172;SDS011;58875;51.996;4.504;2022-09-09T01:15:09;7.50;;;7.50;;
71172;SDS011;58875;51.996;4.504;2022-09-09T01:20:27;7.55;;;7.55;;
71172;SDS011;58875;51.996;4.504;2022-09-09T01:28:28;7.14;;;7.14;;
71172;SDS011;58875;51.996;4.504;2022-09-09T01:30:56;7.14;;;7.01;;
71172;SDS011;58875;51.996;4.504;2022-09-09T01:33:23;7.02;;;6.93;;
71172;SDS011;58875;51.996;4.504;2022-09-09T01:38:21;7.10;;;7.07;;
71172;SDS011;58875;51.996;4.504;2022-09-09T01:40:48;6.57;;;6.55;;
71172;SDS011;58875;51.996;4.504;2022-09-09T01:43:17;6.50;;;6.48;;
71172;SDS011;58875;51.996;4.504;2022-09-09T01:45:45;6.22;;;6.20;;
71172;SDS011;58875;51.996;4.504;2022-09-09T01:48:16;6.19;;;6.19;;
71172;SDS011;58875;51.996;4.504;2022-09-09T01:50:44;5.70;;;5.70;;
71172;SDS011;58875;51.996;4.504;2022-09-09T01:53:09;5.58;;;5.58;;
71172;SDS011;58875;51.996;4.504;2022-09-09T01:55:38;4.96;;;4.96;;
71172;SDS011;58875;51.996;4.504;2022-09-09T01:58:26;5.00;;;4.99;;
71172;SDS011;58875;51.996;4.504;2022-09-09T02:01:07;5.22;;;5.17;;
71172;SDS011;58875;51.996;4.504;2022-09-09T02:03:38;5.12;;;5.09;;
71172;SDS011;58875;51.996;4.504;2022-09-09T02:08:39;4.65;;;4.65;;
71172;SDS011;58875;51.996;4.504;2022-09-09T02:13:43;4.19;;;4.18;;
71172;SDS011;58875;51.996;4.504;2022-09-09T02:16:30;3.78;;;3.78;;
71172;SDS011;58875;51.996;4.504;2022-09-09T02:19:27;3.48;;;3.48;;
71172;SDS011;58875;51.996;4.504;2022-09-09T02:21:59;3.23;;;3.23;;
71172;SDS011;58875;51.996;4.504;2022-09-09T02:24:30;3.51;;;3.51;;
71172;SDS011;58875;51.996;4.504;2022-09-09T02:27:04;3.37;;;3.37;;
71172;SDS011;58875;51.996;4.504;2022-09-09T02:29:38;3.70;;;3.70;;
71172;SDS011;58875;51.996;4.504;2022-09-09T02:32:07;3.75;;;3.75;;
71172;SDS011;58875;51.996;4.504;2022-09-09T02:34:47;3.50;;;3.50;;
71172;SDS011;58875;51.996;4.504;2022-09-09T02:37:20;3.32;;;3.32;;
71172;SDS011;58875;51.996;4.504;2022-09-09T02:39:53;3.55;;;3.55;;
71172;SDS011;58875;51.996;4.504;2022-09-09T02:42:20;3.63;;;3.63;;
71172;SDS011;58875;51.996;4.504;2022-09-09T02:44:46;3.70;;;3.68;;
71172;SDS011;58875;51.996;4.504;2022-09-09T02:52:38;3.74;;;3.72;;
71172;SDS011;58875;51.996;4.504;2022-09-09T02:55:29;3.86;;;3.85;;
71172;SDS011;58875;51.996;4.504;2022-09-09T02:58:25;4.05;;;4.02;;
71172;SDS011;58875;51.996;4.504;2022-09-09T03:00:51;4.04;;;4.02;;
71172;SDS011;58875;51.996;4.504;2022-09-09T03:03:18;3.89;;;3.87;;
71172;SDS011;58875;51.996;4.504;2022-09-09T03:05:46;3.98;;;3.92;;
71172;SDS011;58875;51.996;4.504;2022-09-09T03:08:12;3.62;;;3.58;;
71172;SDS011;58875;51.996;4.504;2022-09-09T03:10:38;3.30;;;3.28;;
71172;SDS011;58875;51.996;4.504;2022-09-09T03:13:04;3.28;;;3.26;;
71172;SDS011;58875;51.996;4.504;2022-09-09T03:15:31;3.32;;;3.28;;
71172;SDS011;58875;51.996;4.504;2022-09-09T03:17:58;3.16;;;3.14;;
71172;SDS011;58875;51.996;4.504;2022-09-09T03:20:25;3.08;;;3.06;;
71172;SDS011;58875;51.996;4.504;2022-09-09T03:22:52;3.32;;;3.27;;
71172;SDS011;58875;51.996;4.504;2022-09-09T03:25:19;3.22;;;3.14;;
71172;SDS011;58875;51.996;4.504;2022-09-09T03:27:45;2.98;;;2.88;;
71172;SDS011;58875;51.996;4.504;2022-09-09T03:30:10;3.20;;;3.12;;
71172;SDS011;58875;51.996;4.504;2022-09-09T03:32:36;2.79;;;2.72;;
71172;SDS011;58875;51.996;4.504;2022-09-09T03:35:02;3.07;;;3.00;;
71172;SDS011;58875;51.996;4.504;2022-09-09T03:37:28;2.88;;;2.78;;
71172;SDS011;58875;51.996;4.504;2022-09-09T03:39:54;3.02;;;2.94;;
71172;SDS011;58875;51.996;4.504;2022-09-09T03:42:19;2.86;;;2.79;;
71172;SDS011;58875;51.996;4.504;2022-09-09T03:44:46;2.73;;;2.64;;
71172;SDS011;58875;51.996;4.504;2022-09-09T03:47:15;2.87;;;2.75;;
71172;SDS011;58875;51.996;4.504;2022-09-09T03:49:43;2.74;;;2.64;;
71172;SDS011;58875;51.996;4.504;2022-09-09T03:52:09;2.76;;;2.70;;
71172;SDS011;58875;51.996;4.504;2022-09-09T03:54:35;2.72;;;2.68;;
71172;SDS011;58875;51.996;4.504;2022-09-09T03:57:00;2.64;;;2.61;;
71172;SDS011;58875;51.996;4.504;2022-09-09T03:59:26;2.63;;;2.60;;
71172;SDS011;58875;51.996;4.504;2022-09-09T04:01:52;2.72;;;2.72;;
71172;SDS011;58875;51.996;4.504;2022-09-09T04:04:18;2.73;;;2.73;;
71172;SDS011;58875;51.996;4.504;2022-09-09T04:06:45;2.47;;;2.46;;
71172;SDS011;58875;51.996;4.504;2022-09-09T04:09:11;2.62;;;2.61;;
71172;SDS011;58875;51.996;4.504;2022-09-09T04:11:37;2.58;;;2.57;;
71172;SDS011;58875;51.996;4.504;2022-09-09T04:14:02;2.36;;;2.36;;
71172;SDS011;58875;51.996;4.504;2022-09-09T04:16:31;2.72;;;2.68;;
71172;SDS011;58875;51.996;4.504;2022-09-09T04:19:02;2.47;;;2.45;;
71172;SDS011;58875;51.996;4.504;2022-09-09T04:21:29;2.47;;;2.45;;
71172;SDS011;58875;51.996;4.504;2022-09-09T04:23:56;2.68;;;2.64;;
71172;SDS011;58875;51.996;4.504;2022-09-09T04:26:22;2.71;;;2.71;;
71172;SDS011;58875;51.996;4.504;2022-09-09T04:28:47;2.51;;;2.49;;
71172;SDS011;58875;51.996;4.504;2022-09-09T04:31:20;2.68;;;2.67;;
71172;SDS011;58875;51.996;4.504;2022-09-09T04:33:50;2.84;;;2.80;;
71172;SDS011;58875;51.996;4.504;2022-09-09T04:36:16;2.85;;;2.78;;
71172;SDS011;58875;51.996;4.504;2022-09-09T04:38:46;2.97;;;2.93;;
71172;SDS011;58875;51.996;4.504;2022-09-09T04:41:14;2.89;;;2.84;;
71172;SDS011;58875;51.996;4.504;2022-09-09T04:43:41;2.66;;;2.60;;
71172;SDS011;58875;51.996;4.504;2022-09-09T04:46:07;2.86;;;2.80;;
71172;SDS011;58875;51.996;4.504;2022-09-09T04:48:33;3.00;;;2.93;;
71172;SDS011;58875;51.996;4.504;2022-09-09T04:51:00;3.16;;;3.09;;
71172;SDS011;58875;51.996;4.504;2022-09-09T04:53:29;3.25;;;3.15;;
71172;SDS011;58875;51.996;4.504;2022-09-09T04:56:04;3.59;;;3.49;;
71172;SDS011;58875;51.996;4.504;2022-09-09T04:58:32;3.23;;;3.22;;
71172;SDS011;58875;51.996;4.504;2022-09-09T05:01:08;3.47;;;3.45;;
71172;SDS011;58875;51.996;4.504;2022-09-09T05:03:36;3.48;;;3.47;;
71172;SDS011;58875;51.996;4.504;2022-09-09T05:06:23;3.39;;;3.38;;
71172;SDS011;58875;51.996;4.504;2022-09-09T05:08:48;4.14;;;4.08;;
71172;SDS011;58875;51.996;4.504;2022-09-09T05:11:21;4.16;;;4.09;;
71172;SDS011;58875;51.996;4.504;2022-09-09T05:13:49;3.82;;;3.77;;
71172;SDS011;58875;51.996;4.504;2022-09-09T05:16:16;3.76;;;3.72;;
71172;SDS011;58875;51.996;4.504;2022-09-09T05:18:42;3.83;;;3.79;;
71172;SDS011;58875;51.996;4.504;2022-09-09T05:21:08;3.50;;;3.46;;
71172;SDS011;58875;51.996;4.504;2022-09-09T05:23:39;3.70;;;3.67;;
71172;SDS011;58875;51.996;4.504;2022-09-09T05:26:06;3.74;;;3.71;;
71172;SDS011;58875;51.996;4.504;2022-09-09T05:28:37;3.65;;;3.62;;
71172;SDS011;58875;51.996;4.504;2022-09-09T05:31:03;3.77;;;3.68;;
71172;SDS011;58875;51.996;4.504;2022-09-09T05:33:33;3.62;;;3.51;;
71172;SDS011;58875;51.996;4.504;2022-09-09T05:36:01;3.70;;;3.63;;
71172;SDS011;58875;51.996;4.504;2022-09-09T05:38:31;3.78;;;3.71;;
71172;SDS011;58875;51.996;4.504;2022-09-09T05:40:58;3.72;;;3.64;;
71172;SDS011;58875;51.996;4.504;2022-09-09T05:43:25;3.69;;;3.63;;
71172;SDS011;58875;51.996;4.504;2022-09-09T05:46:25;3.65;;;3.58;;
71172;SDS011;58875;51.996;4.504;2022-09-09T05:48:46;3.61;;;3.50;;
71172;SDS011;58875;51.996;4.504;2022-09-09T05:51:14;3.85;;;3.76;;
71172;SDS011;58875;51.996;4.504;2022-09-09T05:53:42;3.72;;;3.61;;
71172;SDS011;58875;51.996;4.504;2022-09-09T05:56:10;3.61;;;3.51;;
71172;SDS011;58875;51.996;4.504;2022-09-09T05:58:42;3.27;;;3.24;;
71172;SDS011;58875;51.996;4.504;2022-09-09T06:01:13;3.60;;;3.56;;
71172;SDS011;58875;51.996;4.504;2022-09-09T06:03:41;3.51;;;3.37;;
71172;SDS011;58875;51.996;4.504;2022-09-09T06:06:09;3.51;;;3.39;;
71172;SDS011;58875;51.996;4.504;2022-09-09T06:08:37;3.68;;;3.48;;
71172;SDS011;58875;51.996;4.504;2022-09-09T06:11:05;3.70;;;3.52;;
71172;SDS011;58875;51.996;4.504;2022-09-09T06:13:36;3.54;;;3.41;;
71172;SDS011;58875;51.996;4.504;2022-09-09T06:16:08;3.71;;;3.51;;
71172;SDS011;58875;51.996;4.504;2022-09-09T06:18:37;3.69;;;3.50;;
71172;SDS011;58875;51.996;4.504;2022-09-09T06:21:04;3.49;;;3.35;;
71172;SDS011;58875;51.996;4.504;2022-09-09T06:23:32;3.57;;;3.46;;
71172;SDS011;58875;51.996;4.504;2022-09-09T06:26:03;3.35;;;3.25;;
71172;SDS011;58875;51.996;4.504;2022-09-09T06:28:31;3.53;;;3.37;;
71172;SDS011;58875;51.996;4.504;2022-09-09T06:31:01;3.85;;;3.61;;
71172;SDS011;58875;51.996;4.504;2022-09-09T06:33:33;3.78;;;3.57;;
71172;SDS011;58875;51.996;4.504;2022-09-09T06:36:01;3.59;;;3.53;;
71172;SDS011;58875;51.996;4.504;2022-09-09T06:38:31;3.27;;;3.25;;
71172;SDS011;58875;51.996;4.504;2022-09-09T06:40:57;3.42;;;3.42;;
71172;SDS011;58875;51.996;4.504;2022-09-09T06:43:24;3.63;;;3.63;;
71172;SDS011;58875;51.996;4.504;2022-09-09T06:48:34;4.15;;;4.15;;
71172;SDS011;58875;51.996;4.504;2022-09-09T06:51:05;4.21;;;4.21;;
71172;SDS011;58875;51.996;4.504;2022-09-09T06:53:37;4.91;;;4.91;;
71172;SDS011;58875;51.996;4.504;2022-09-09T06:58:36;4.62;;;4.62;;
71172;SDS011;58875;51.996;4.504;2022-09-09T07:01:05;4.43;;;4.43;;
71172;SDS011;58875;51.996;4.504;2022-09-09T07:03:32;4.24;;;4.24;;
71172;SDS011;58875;51.996;4.504;2022-09-09T07:05:58;4.43;;;4.43;;
71172;SDS011;58875;51.996;4.504;2022-09-09T07:08:25;4.54;;;4.54;;
71172;SDS011;58875;51.996;4.504;2022-09-09T07:10:51;4.57;;;4.57;;
71172;SDS011;58875;51.996;4.504;2022-09-09T07:13:24;4.78;;;4.78;;
71172;SDS011;58875;51.996;4.504;2022-09-09T07:15:51;4.81;;;4.81;;
71172;SDS011;58875;51.996;4.504;2022-09-09T07:18:17;4.64;;;4.64;;
71172;SDS011;58875;51.996;4.504;2022-09-09T07:20:43;5.29;;;5.29;;
71172;SDS011;58875;51.996;4.504;2022-09-09T07:23:18;5.61;;;5.61;;
71172;SDS011;58875;51.996;4.504;2022-09-09T07:25:46;5.92;;;5.92;;
71172;SDS011;58875;51.996;4.504;2022-09-09T07:28:12;6.13;;;6.13;;
71172;SDS011;58875;51.996;4.504;2022-09-09T07:30:38;5.98;;;5.98;;
71172;SDS011;58875;51.996;4.504;2022-09-09T07:33:05;6.09;;;6.09;;
71172;SDS011;58875;51.996;4.504;2022-09-09T07:35:31;6.05;;;6.05;;
71172;SDS011;58875;51.996;4.504;2022-09-09T07:37:57;6.98;;;6.98;;
71172;SDS011;58875;51.996;4.504;2022-09-09T07:40:23;6.57;;;6.57;;
71172;SDS011;58875;51.996;4.504;2022-09-09T07:42:49;6.89;;;6.89;;
71172;SDS011;58875;51.996;4.504;2022-09-09T07:45:15;6.71;;;6.71;;
71172;SDS011;58875;51.996;4.504;2022-09-09T07:47:41;6.37;;;6.37;;
71172;SDS011;58875;51.996;4.504;2022-09-09T07:50:08;6.18;;;6.18;;
71172;SDS011;58875;51.996;4.504;2022-09-09T07:52:35;6.10;;;6.10;;
71172;SDS011;58875;51.996;4.504;2022-09-09T07:55:01;5.66;;;5.66;;
71172;SDS011;58875;51.996;4.504;2022-09-09T07:57:29;5.72;;;5.72;;
71172;SDS011;58875;51.996;4.504;2022-09-09T07:59:58;5.46;;;5.45;;
71172;SDS011;58875;51.996;4.504;2022-09-09T08:02:24;5.50;;;5.50;;
71172;SDS011;58875;51.996;4.504;2022-09-09T08:04:50;5.37;;;5.37;;
71172;SDS011;58875;51.996;4.504;2022-09-09T08:07:16;5.30;;;5.30;;
71172;SDS011;58875;51.996;4.504;2022-09-09T08:09:42;5.05;;;5.05;;
71172;SDS011;58875;51.996;4.504;2022-09-09T08:12:09;5.26;;;5.26;;
71172;SDS011;58875;51.996;4.504;2022-09-09T08:14:35;4.97;;;4.97;;
71172;SDS011;58875;51.996;4.504;2022-09-09T08:17:01;4.97;;;4.97;;
71172;SDS011;58875;51.996;4.504;2022-09-09T08:19:28;5.06;;;5.06;;
71172;SDS011;58875;51.996;4.504;2022-09-09T08:21:59;5.16;;;5.16;;
71172;SDS011;58875;51.996;4.504;2022-09-09T08:24:24;5.27;;;5.27;;
71172;SDS011;58875;51.996;4.504;2022-09-09T08:26:50;5.03;;;5.03;;
71172;SDS011;58875;51.996;4.504;2022-09-09T08:29:15;4.80;;;4.80;;
71172;SDS011;58875;51.996;4.504;2022-09-09T08:31:43;5.08;;;5.08;;
71172;SDS011;58875;51.996;4.504;2022-09-09T08:34:11;5.17;;;5.17;;
71172;SDS011;58875;51.996;4.504;2022-09-09T08:36:39;5.20;;;5.20;;
71172;SDS011;58875;51.996;4.504;2022-09-09T08:39:08;5.10;;;5.10;;
71172;SDS011;58875;51.996;4.504;2022-09-09T08:52:26;5.94;;;5.94;;
71172;SDS011;58875;51.996;4.504;2022-09-09T08:55:10;5.45;;;5.45;;
71172;SDS011;58875;51.996;4.504;2022-09-09T08:57:49;5.63;;;5.63;;
71172;SDS011;58875;51.996;4.504;2022-09-09T09:00:18;6.00;;;6.00;;
71172;SDS011;58875;51.996;4.504;2022-09-09T09:05:44;5.55;;;5.55;;
71172;SDS011;58875;51.996;4.504;2022-09-09T09:08:31;5.73;;;5.73;;
71172;SDS011;58875;51.996;4.504;2022-09-09T09:11:08;5.70;;;5.70;;
71172;SDS011;58875;51.996;4.504;2022-09-09T09:16:17;5.60;;;5.60;;
71172;SDS011;58875;51.996;4.504;2022-09-09T09:19:08;5.69;;;5.69;;
71172;SDS011;58875;51.996;4.504;2022-09-09T09:26:41;5.08;;;5.08;;
71172;SDS011;58875;51.996;4.504;2022-09-09T09:29:12;5.63;;;5.63;;
71172;SDS011;58875;51.996;4.504;2022-09-09T09:31:45;6.05;;;6.05;;
71172;SDS011;58875;51.996;4.504;2022-09-09T09:34:17;5.83;;;5.83;;
71172;SDS011;58875;51.996;4.504;2022-09-09T09:36:53;5.67;;;5.67;;
71172;SDS011;58875;51.996;4.504;2022-09-09T09:41:48;5.64;;;5.64;;
71172;SDS011;58875;51.996;4.504;2022-09-09T09:44:25;5.77;;;5.77;;
71172;SDS011;58875;51.996;4.504;2022-09-09T09:47:05;6.00;;;6.00;;
71172;SDS011;58875;51.996;4.504;2022-09-09T09:49:39;5.80;;;5.80;;
71172;SDS011;58875;51.996;4.504;2022-09-09T09:52:24;6.23;;;6.23;;
71172;SDS011;58875;51.996;4.504;2022-09-09T09:54:52;6.11;;;6.11;;
71172;SDS011;58875;51.996;4.504;2022-09-09T09:57:22;5.57;;;5.57;;
71172;SDS011;58875;51.996;4.504;2022-09-09T10:00:03;5.44;;;5.44;;
71172;SDS011;58875;51.996;4.504;2022-09-09T10:02:37;5.05;;;5.05;;
71172;SDS011;58875;51.996;4.504;2022-09-09T10:05:12;4.91;;;4.91;;
71172;SDS011;58875;51.996;4.504;2022-09-09T10:07:43;4.93;;;4.93;;
71172;SDS011;58875;51.996;4.504;2022-09-09T10:10:13;4.95;;;4.95;;
71172;SDS011;58875;51.996;4.504;2022-09-09T10:12:58;4.96;;;4.96;;
71172;SDS011;58875;51.996;4.504;2022-09-09T10:15:52;5.01;;;5.01;;
71172;SDS011;58875;51.996;4.504;2022-09-09T10:27:18;5.29;;;5.29;;
71172;SDS011;58875;51.996;4.504;2022-09-09T10:33:13;5.64;;;5.64;;
71172;SDS011;58875;51.996;4.504;2022-09-09T10:36:21;5.68;;;5.68;;
71172;SDS011;58875;51.996;4.504;2022-09-09T10:39:37;5.79;;;5.79;;
71172;SDS011;58875;51.996;4.504;2022-09-09T10:42:05;5.02;;;5.02;;
71172;SDS011;58875;51.996;4.504;2022-09-09T10:47:57;4.89;;;4.89;;
71172;SDS011;58875;51.996;4.504;2022-09-09T10:50:40;5.06;;;5.06;;
71172;SDS011;58875;51.996;4.504;2022-09-09T10:56:06;4.72;;;4.72;;
71172;SDS011;58875;51.996;4.504;2022-09-09T10:58:40;3.97;;;3.97;;
71172;SDS011;58875;51.996;4.504;2022-09-09T11:01:20;4.10;;;4.10;;
71172;SDS011;58875;51.996;4.504;2022-09-09T11:03:55;4.46;;;4.46;;
71172;SDS011;58875;51.996;4.504;2022-09-09T11:06:37;4.39;;;4.39;;
71172;SDS011;58875;51.996;4.504;2022-09-09T11:09:14;4.38;;;4.38;;
71172;SDS011;58875;51.996;4.504;2022-09-09T11:11:46;4.72;;;4.72;;
71172;SDS011;58875;51.996;4.504;2022-09-09T11:14:26;4.46;;;4.46;;
71172;SDS011;58875;51.996;4.504;2022-09-09T11:17:04;4.56;;;4.56;;
71172;SDS011;58875;51.996;4.504;2022-09-09T11:19:40;4.47;;;4.47;;
71172;SDS011;58875;51.996;4.504;2022-09-09T11:24:53;4.75;;;4.75;;
71172;SDS011;58875;51.996;4.504;2022-09-09T11:33:11;4.68;;;4.68;;
71172;SDS011;58875;51.996;4.504;2022-09-09T11:36:31;4.33;;;4.33;;
71172;SDS011;58875;51.996;4.504;2022-09-09T11:42:23;4.57;;;4.57;;
71172;SDS011;58875;51.996;4.504;2022-09-09T11:44:50;4.32;;;4.32;;
71172;SDS011;58875;51.996;4.504;2022-09-09T11:49:51;4.89;;;4.89;;
71172;SDS011;58875;51.996;4.504;2022-09-09T11:55:29;5.09;;;5.09;;
71172;SDS011;58875;51.996;4.504;2022-09-09T12:06:28;4.96;;;4.96;;
71172;SDS011;58875;51.996;4.504;2022-09-09T12:09:15;5.30;;;5.30;;
71172;SDS011;58875;51.996;4.504;2022-09-09T12:11:51;5.57;;;5.57;;
71172;SDS011;58875;51.996;4.504;2022-09-09T12:17:37;5.55;;;5.55;;
71172;SDS011;58875;51.996;4.504;2022-09-09T12:20:15;5.91;;;5.91;;
71172;SDS011;58875;51.996;4.504;2022-09-09T12:28:20;5.65;;;5.65;;
71172;SDS011;58875;51.996;4.504;2022-09-09T12:31:02;5.08;;;5.08;;
71172;SDS011;58875;51.996;4.504;2022-09-09T12:33:36;4.65;;;4.65;;
71172;SDS011;58875;51.996;4.504;2022-09-09T12:36:10;4.51;;;4.51;;
71172;SDS011;58875;51.996;4.504;2022-09-09T12:38:48;5.15;;;5.15;;
71172;SDS011;58875;51.996;4.504;2022-09-09T12:41:25;5.00;;;5.00;;
71172;SDS011;58875;51.996;4.504;2022-09-09T12:44:02;5.78;;;5.78;;
71172;SDS011;58875;51.996;4.504;2022-09-09T12:46:40;5.66;;;5.66;;
71172;SDS011;58875;51.996;4.504;2022-09-09T12:52:07;5.90;;;5.90;;
71172;SDS011;58875;51.996;4.504;2022-09-09T12:54:59;5.77;;;5.77;;
71172;SDS011;58875;51.996;4.504;2022-09-09T12:57:33;5.80;;;5.80;;
71172;SDS011;58875;51.996;4.504;2022-09-09T13:00:06;5.28;;;5.28;;
71172;SDS011;58875;51.996;4.504;2022-09-09T13:02:46;5.06;;;5.06;;
71172;SDS011;58875;51.996;4.504;2022-09-09T13:05:18;4.54;;;4.54;;
71172;SDS011;58875;51.996;4.504;2022-09-09T13:07:47;4.92;;;4.92;;
71172;SDS011;58875;51.996;4.504;2022-09-09T13:10:13;4.68;;;4.68;;
71172;SDS011;58875;51.996;4.504;2022-09-09T13:12:46;4.29;;;4.29;;
71172;SDS011;58875;51.996;4.504;2022-09-09T13:15:14;4.00;;;4.00;;
71172;SDS011;58875;51.996;4.504;2022-09-09T13:17:57;3.82;;;3.82;;
71172;SDS011;58875;51.996;4.504;2022-09-09T13:20:26;3.47;;;3.47;;
71172;SDS011;58875;51.996;4.504;2022-09-09T13:22:53;2.75;;;2.75;;
71172;SDS011;58875;51.996;4.504;2022-09-09T13:27:53;2.66;;;2.66;;
71172;SDS011;58875;51.996;4.504;2022-09-09T13:30:35;2.99;;;2.99;;
71172;SDS011;58875;51.996;4.504;2022-09-09T13:33:06;2.80;;;2.80;;
71172;SDS011;58875;51.996;4.504;2022-09-09T13:35:48;2.89;;;2.89;;
71172;SDS011;58875;51.996;4.504;2022-09-09T13:38:19;3.05;;;3.05;;
71172;SDS011;58875;51.996;4.504;2022-09-09T13:40:57;3.02;;;3.02;;
71172;SDS011;58875;51.996;4.504;2022-09-09T13:43:28;3.11;;;3.11;;
71172;SDS011;58875;51.996;4.504;2022-09-09T13:49:22;3.05;;;3.05;;
71172;SDS011;58875;51.996;4.504;2022-09-09T13:54:18;3.88;;;3.88;;
71172;SDS011;58875;51.996;4.504;2022-09-09T13:56:45;3.89;;;3.89;;
71172;SDS011;58875;51.996;4.504;2022-09-09T13:59:15;4.00;;;4.00;;
71172;SDS011;58875;51.996;4.504;2022-09-09T14:01:45;3.43;;;3.43;;
71172;SDS011;58875;51.996;4.504;2022-09-09T14:04:11;3.19;;;3.19;;
71172;SDS011;58875;51.996;4.504;2022-09-09T14:06:37;3.29;;;3.29;;
71172;SDS011;58875;51.996;4.504;2022-09-09T14:09:05;3.42;;;3.42;;
71172;SDS011;58875;51.996;4.504;2022-09-09T14:11:31;3.18;;;3.18;;
71172;SDS011;58875;51.996;4.504;2022-09-09T14:13:57;2.90;;;2.90;;
71172;SDS011;58875;51.996;4.504;2022-09-09T14:16:22;2.97;;;2.97;;
71172;SDS011;58875;51.996;4.504;2022-09-09T14:18:48;2.52;;;2.52;;
71172;SDS011;58875;51.996;4.504;2022-09-09T14:21:14;2.45;;;2.45;;
71172;SDS011;58875;51.996;4.504;2022-09-09T14:23:40;2.39;;;2.39;;
71172;SDS011;58875;51.996;4.504;2022-09-09T14:26:07;2.28;;;2.28;;
71172;SDS011;58875;51.996;4.504;2022-09-09T14:28:33;2.23;;;2.23;;
71172;SDS011;58875;51.996;4.504;2022-09-09T14:31:01;2.07;;;2.07;;
71172;SDS011;58875;51.996;4.504;2022-09-09T14:33:28;2.29;;;2.29;;
71172;SDS011;58875;51.996;4.504;2022-09-09T14:35:58;2.07;;;2.07;;
71172;SDS011;58875;51.996;4.504;2022-09-09T14:38:25;2.23;;;2.23;;
71172;SDS011;58875;51.996;4.504;2022-09-09T14:40:54;2.13;;;2.13;;
71172;SDS011;58875;51.996;4.504;2022-09-09T14:43:19;1.92;;;1.92;;
71172;SDS011;58875;51.996;4.504;2022-09-09T14:45:45;1.96;;;1.96;;
71172;SDS011;58875;51.996;4.504;2022-09-09T14:48:13;2.11;;;2.11;;
71172;SDS011;58875;51.996;4.504;2022-09-09T14:50:40;2.00;;;2.00;;
71172;SDS011;58875;51.996;4.504;2022-09-09T14:53:06;1.87;;;1.87;;
71172;SDS011;58875;51.996;4.504;2022-09-09T14:55:34;2.02;;;2.02;;
71172;SDS011;58875;51.996;4.504;2022-09-09T14:58:00;1.90;;;1.90;;
71172;SDS011;58875;51.996;4.504;2022-09-09T15:00:25;1.71;;;1.71;;
71172;SDS011;58875;51.996;4.504;2022-09-09T15:02:54;1.62;;;1.62;;
71172;SDS011;58875;51.996;4.504;2022-09-09T15:05:20;1.85;;;1.85;;
71172;SDS011;58875;51.996;4.504;2022-09-09T15:07:46;1.72;;;1.71;;
71172;SDS011;58875;51.996;4.504;2022-09-09T15:10:13;1.94;;;1.93;;
71172;SDS011;58875;51.996;4.504;2022-09-09T15:12:39;1.61;;;1.61;;
71172;SDS011;58875;51.996;4.504;2022-09-09T15:15:06;1.58;;;1.58;;
71172;SDS011;58875;51.996;4.504;2022-09-09T15:17:32;1.69;;;1.68;;
71172;SDS011;58875;51.996;4.504;2022-09-09T15:19:58;1.74;;;1.69;;
71172;SDS011;58875;51.996;4.504;2022-09-09T15:22:23;1.71;;;1.68;;
71172;SDS011;58875;51.996;4.504;2022-09-09T15:24:49;1.88;;;1.88;;
71172;SDS011;58875;51.996;4.504;2022-09-09T15:27:15;1.96;;;1.96;;
71172;SDS011;58875;51.996;4.504;2022-09-09T15:29:41;2.13;;;2.13;;
71172;SDS011;58875;51.996;4.504;2022-09-09T15:32:07;2.29;;;2.29;;
71172;SDS011;58875;51.996;4.504;2022-09-09T15:34:33;2.20;;;2.20;;
71172;SDS011;58875;51.996;4.504;2022-09-09T15:36:58;2.28;;;2.28;;
71172;SDS011;58875;51.996;4.504;2022-09-09T15:39:25;2.41;;;2.40;;
71172;SDS011;58875;51.996;4.504;2022-09-09T15:41:50;2.49;;;2.47;;
71172;SDS011;58875;51.996;4.504;2022-09-09T15:44:17;2.85;;;2.84;;
71172;SDS011;58875;51.996;4.504;2022-09-09T15:49:17;3.56;;;3.54;;
71172;SDS011;58875;51.996;4.504;2022-09-09T15:51:58;3.56;;;3.54;;
71172;SDS011;58875;51.996;4.504;2022-09-09T15:54:27;3.83;;;3.82;;
71172;SDS011;58875;51.996;4.504;2022-09-09T15:56:58;4.17;;;4.17;;
71172;SDS011;58875;51.996;4.504;2022-09-09T15:59:26;4.98;;;4.98;;
71172;SDS011;58875;51.996;4.504;2022-09-09T16:01:53;5.30;;;5.30;;
71172;SDS011;58875;51.996;4.504;2022-09-09T16:04:20;5.76;;;5.76;;
71172;SDS011;58875;51.996;4.504;2022-09-09T16:06:50;6.24;;;6.24;;
71172;SDS011;58875;51.996;4.504;2022-09-09T16:09:24;6.78;;;6.78;;
71172;SDS011;58875;51.996;4.504;2022-09-09T16:11:51;6.74;;;6.74;;
71172;SDS011;58875;51.996;4.504;2022-09-09T16:14:19;7.36;;;7.36;;
71172;SDS011;58875;51.996;4.504;2022-09-09T16:16:44;8.11;;;8.11;;
71172;SDS011;58875;51.996;4.504;2022-09-09T16:19:11;7.66;;;7.66;;
71172;SDS011;58875;51.996;4.504;2022-09-09T16:21:39;7.61;;;7.61;;
71172;SDS011;58875;51.996;4.504;2022-09-09T16:24:10;6.95;;;6.95;;
71172;SDS011;58875;51.996;4.504;2022-09-09T16:26:39;7.54;;;7.54;;
71172;SDS011;58875;51.996;4.504;2022-09-09T16:29:07;7.89;;;7.89;;
71172;SDS011;58875;51.996;4.504;2022-09-09T16:31:34;7.95;;;7.95;;
71172;SDS011;58875;51.996;4.504;2022-09-09T16:33:59;7.54;;;7.54;;
71172;SDS011;58875;51.996;4.504;2022-09-09T16:36:27;7.49;;;7.49;;
71172;SDS011;58875;51.996;4.504;2022-09-09T16:38:56;7.05;;;7.05;;
71172;SDS011;58875;51.996;4.504;2022-09-09T16:41:23;6.77;;;6.77;;
71172;SDS011;58875;51.996;4.504;2022-09-09T16:43:57;5.93;;;5.93;;
71172;SDS011;58875;51.996;4.504;2022-09-09T16:46:25;5.40;;;5.40;;
71172;SDS011;58875;51.996;4.504;2022-09-09T16:48:53;4.68;;;4.68;;
71172;SDS011;58875;51.996;4.504;2022-09-09T16:51:22;4.26;;;4.26;;
71172;SDS011;58875;51.996;4.504;2022-09-09T16:54:09;3.75;;;3.75;;
71172;SDS011;58875;51.996;4.504;2022-09-09T16:56:36;3.47;;;3.47;;
71172;SDS011;58875;51.996;4.504;2022-09-09T16:59:07;3.81;;;3.81;;
71172;SDS011;58875;51.996;4.504;2022-09-09T17:01:36;3.92;;;3.92;;
71172;SDS011;58875;51.996;4.504;2022-09-09T17:04:04;4.39;;;4.39;;
71172;SDS011;58875;51.996;4.504;2022-09-09T17:06:33;4.93;;;4.93;;
71172;SDS011;58875;51.996;4.504;2022-09-09T17:09:03;4.89;;;4.89;;
71172;SDS011;58875;51.996;4.504;2022-09-09T17:11:31;5.16;;;5.16;;
71172;SDS011;58875;51.996;4.504;2022-09-09T17:13:57;4.97;;;4.97;;
71172;SDS011;58875;51.996;4.504;2022-09-09T17:16:24;5.17;;;5.17;;
71172;SDS011;58875;51.996;4.504;2022-09-09T17:18:52;5.35;;;5.35;;
71172;SDS011;58875;51.996;4.504;2022-09-09T17:21:20;5.44;;;5.43;;
71172;SDS011;58875;51.996;4.504;2022-09-09T17:23:49;5.28;;;5.27;;
71172;SDS011;58875;51.996;4.504;2022-09-09T17:26:16;5.61;;;5.61;;
71172;SDS011;58875;51.996;4.504;2022-09-09T17:28:45;5.56;;;5.56;;
71172;SDS011;58875;51.996;4.504;2022-09-09T17:31:12;5.46;;;5.46;;
71172;SDS011;58875;51.996;4.504;2022-09-09T17:33:40;5.62;;;5.62;;
71172;SDS011;58875;51.996;4.504;2022-09-09T17:36:08;5.38;;;5.38;;
71172;SDS011;58875;51.996;4.504;2022-09-09T17:38:35;4.78;;;4.78;;
71172;SDS011;58875;51.996;4.504;2022-09-09T17:41:04;5.03;;;5.02;;